Time;durP1;ratioP1;P1;durP2;ratioP2;P2;SDS_P1;SDS_P2;PMS_P1;PMS_P2;Temp;Humidity;BMP_temperature;BMP_pressure;BME280_temperature;BME280_humidity;BME280_pressure;Samples;Min_cycle;Max_cycle;Signal;HPM_P1;HPM_P2
2022/03/22 00:02:09;;;;;;;12.80;7.12;;;;;;;5.07;32.87;101858.28;4443416;32;31925;-76
2022/03/22 00:04:42;;;;;;;10.40;5.50;;;;;;;4.88;33.49;101862.44;4430850;32;33000;-76
2022/03/22 00:07:09;;;;;;;12.43;6.12;;;;;;;5.05;33.14;101861.13;4443274;32;34370;-76
2022/03/22 00:09:37;;;;;;;14.52;6.85;;;;;;;5.01;32.79;101864.22;4442961;32;33920;-76
2022/03/22 00:12:07;;;;;;;14.20;6.70;;;;;;;4.90;32.86;101868.63;4454727;32;34021;-76
2022/03/22 00:14:37;;;;;;;12.37;6.55;;;;;;;5.07;32.72;101864.59;4443019;32;33783;-77
2022/03/22 00:17:32;;;;;;;12.37;6.18;;;;;;;4.95;32.82;101866.44;4449292;32;35349;-76
2022/03/22 00:20:11;;;;;;;12.45;6.90;;;;;;;4.99;32.92;101866.19;4444486;32;32780;-76
2022/03/22 00:22:56;;;;;;;12.37;6.70;;;;;;;4.87;33.45;101863.44;4444023;32;32971;-76
2022/03/22 00:25:27;;;;;;;14.48;5.85;;;;;;;4.81;33.70;101863.91;4443442;32;33210;-76
2022/03/22 00:27:57;;;;;;;12.77;6.40;;;;;;;4.86;33.42;101861.69;4443302;32;34185;-76
2022/03/22 00:30:33;;;;;;;12.13;5.72;;;;;;;4.78;33.44;101858.69;4455873;32;34037;-76
2022/03/22 00:33:03;;;;;;;12.25;5.78;;;;;;;4.82;33.36;101854.75;4443507;32;34301;-76
2022/03/22 00:35:35;;;;;;;12.25;6.15;;;;;;;4.81;33.50;101858.47;4442885;32;32281;-76
2022/03/22 00:38:06;;;;;;;13.35;5.90;;;;;;;4.88;33.59;101865.16;4455494;32;35114;-76
2022/03/22 00:40:35;;;;;;;12.30;6.53;;;;;;;4.87;33.82;101858.00;4455714;32;33915;-76
2022/03/22 00:43:02;;;;;;;11.77;6.68;;;;;;;4.92;33.79;101861.22;4442797;32;33639;-76
2022/03/22 00:45:34;;;;;;;13.05;6.65;;;;;;;4.92;33.86;101853.06;4455663;32;33675;-76
2022/03/22 00:48:04;;;;;;;13.43;6.03;;;;;;;4.74;34.64;101857.19;4443244;32;34927;-76
2022/03/22 00:50:35;;;;;;;14.90;6.45;;;;;;;4.93;34.33;101853.94;4455542;32;33944;-76
2022/03/22 00:53:12;;;;;;;12.63;6.07;;;;;;;4.70;34.79;101860.28;4442745;32;33033;-76
2022/03/22 00:55:40;;;;;;;11.73;6.00;;;;;;;4.78;34.58;101853.25;4456584;32;33433;-76
2022/03/22 00:58:08;;;;;;;14.43;6.20;;;;;;;4.70;34.61;101850.25;4442625;32;33077;-76
2022/03/22 01:00:36;;;;;;;16.55;8.80;;;;;;;4.78;34.39;101855.97;4442492;32;33338;-76
2022/03/22 01:03:05;;;;;;;19.30;10.38;;;;;;;4.68;34.39;101849.50;4455770;32;33250;-76
2022/03/22 01:05:34;;;;;;;17.12;9.35;;;;;;;4.81;34.04;101858.47;4455097;32;32464;-76
2022/03/22 01:08:08;;;;;;;19.10;10.52;;;;;;;4.76;34.25;101852.50;4444808;32;34593;-76
2022/03/22 01:10:38;;;;;;;15.38;8.48;;;;;;;4.82;34.24;101848.44;4457164;32;33848;-76
2022/03/22 01:13:06;;;;;;;14.02;7.80;;;;;;;4.90;34.03;101846.00;4444507;32;33394;-76
2022/03/22 01:15:35;;;;;;;14.45;7.65;;;;;;;4.83;34.19;101845.59;4444180;32;32230;-76
2022/03/22 01:18:06;;;;;;;14.95;7.40;;;;;;;4.71;34.46;101842.97;4457661;32;34303;-76
2022/03/22 01:20:36;;;;;;;15.23;7.47;;;;;;;4.54;34.50;101827.97;4457262;32;33834;-76
2022/03/22 01:23:07;;;;;;;14.15;6.60;;;;;;;4.81;34.31;101841.28;4431650;32;31994;-76
2022/03/22 01:25:36;;;;;;;12.45;5.87;;;;;;;4.53;34.95;101850.72;4457337;32;33705;-76
2022/03/22 01:28:05;;;;;;;14.87;7.40;;;;;;;4.58;34.86;101841.19;4457098;32;35257;-76
2022/03/22 01:30:33;;;;;;;14.10;7.22;;;;;;;4.38;34.99;101849.16;4444140;32;32526;-76
2022/03/22 01:33:01;;;;;;;20.62;10.88;;;;;;;4.40;34.92;101842.63;4444309;32;34159;-76
2022/03/22 01:35:32;;;;;;;29.20;14.63;;;;;;;4.53;34.65;101837.13;4457231;32;33902;-76
2022/03/22 01:38:00;;;;;;;24.08;12.85;;;;;;;4.59;34.38;101845.66;4457319;32;34378;-76
2022/03/22 01:40:32;;;;;;;27.05;12.93;;;;;;;4.62;34.37;101834.53;4431434;32;32487;-76
2022/03/22 01:43:00;;;;;;;23.42;12.07;;;;;;;4.56;34.71;101842.28;4444044;32;31773;-76
2022/03/22 01:45:28;;;;;;;24.48;14.10;;;;;;;4.47;34.72;101834.88;4444541;32;33697;-76
2022/03/22 01:48:01;;;;;;;27.65;16.15;;;;;;;4.43;35.01;101830.66;4443925;32;33960;-76
2022/03/22 01:50:32;;;;;;;30.23;17.37;;;;;;;4.46;34.94;101834.00;4444577;32;34229;-76
2022/03/22 01:53:00;;;;;;;30.98;18.98;;;;;;;4.36;35.04;101840.25;4444160;32;34109;-76
2022/03/22 01:55:28;;;;;;;35.10;20.90;;;;;;;4.51;34.66;101833.66;4443995;32;32227;-76
2022/03/22 01:57:56;;;;;;;28.27;15.88;;;;;;;4.47;34.77;101826.72;4469642;32;35443;-76
2022/03/22 02:00:27;;;;;;;21.83;12.00;;;;;;;4.38;34.94;101832.84;4456926;32;33542;-76
2022/03/22 02:08:30;;;;;;;19.35;11.15;;;;;;;4.36;35.32;101834.81;4444910;32;33088;-76
2022/03/22 02:11:00;;;;;;;15.32;9.27;;;;;;;4.35;35.55;101833.94;4455880;32;32790;-76
2022/03/22 02:13:29;;;;;;;15.35;8.77;;;;;;;4.37;35.43;101822.97;4456064;32;33464;-76
2022/03/22 02:15:59;;;;;;;16.55;8.68;;;;;;;4.16;35.77;101829.03;4455646;32;33632;-76
2022/03/22 02:18:27;;;;;;;10.55;5.95;;;;;;;4.34;35.32;101817.75;4442910;32;35256;-76
2022/03/22 02:20:55;;;;;;;11.77;6.53;;;;;;;4.28;35.39;101811.81;4455977;32;33868;-76
2022/03/22 02:23:59;;;;;;;12.70;6.55;;;;;;;4.10;36.07;101817.75;4443301;32;33531;-76
2022/03/22 02:26:27;;;;;;;13.20;6.97;;;;;;;3.91;36.37;101830.00;4455720;32;31992;-76
2022/03/22 02:28:59;;;;;;;15.35;7.07;;;;;;;4.15;35.63;101824.56;4456064;32;34462;-76
2022/03/22 02:31:28;;;;;;;14.25;7.20;;;;;;;4.17;35.67;101813.59;4443449;32;34028;-76
2022/03/22 02:33:59;;;;;;;14.82;7.10;;;;;;;4.21;35.83;101818.69;4443132;32;32680;-76
2022/03/22 02:36:27;;;;;;;13.45;6.55;;;;;;;4.13;36.00;101818.38;4443050;32;34390;-76
2022/03/22 02:38:55;;;;;;;11.65;6.43;;;;;;;4.27;35.69;101823.66;4469774;32;34319;-76
2022/03/22 02:41:24;;;;;;;11.85;6.40;;;;;;;4.19;35.98;101808.91;4430283;32;33404;-76
2022/03/22 02:43:53;;;;;;;12.70;6.60;;;;;;;4.13;36.09;101820.25;4442855;32;32571;-76
2022/03/22 02:46:21;;;;;;;14.93;6.62;;;;;;;4.06;35.98;101822.56;4455480;32;34645;-76
2022/03/22 02:48:49;;;;;;;10.52;6.12;;;;;;;4.05;36.07;101820.81;4455719;32;34538;-76
2022/03/22 02:51:17;;;;;;;9.88;5.50;;;;;;;4.04;35.90;101818.22;4455710;32;33981;-76
2022/03/22 02:53:44;;;;;;;11.27;5.85;;;;;;;4.18;35.89;101813.47;4442937;32;34082;-76
2022/03/22 02:56:12;;;;;;;11.60;6.78;;;;;;;4.19;35.91;101823.37;4442806;32;33615;-76
2022/03/22 02:58:40;;;;;;;13.68;6.53;;;;;;;4.16;35.90;101820.88;4429850;32;32886;-76
2022/03/22 03:01:11;;;;;;;10.82;5.65;;;;;;;4.17;36.07;101827.19;4430757;32;32760;-76
2022/03/22 03:03:39;;;;;;;12.27;5.93;;;;;;;4.10;36.15;101829.50;4442983;32;34190;-76
2022/03/22 03:06:06;;;;;;;11.10;5.72;;;;;;;4.15;35.86;101821.84;4455394;32;33574;-76
2022/03/22 03:08:34;;;;;;;10.02;5.10;;;;;;;4.17;35.75;101824.47;4442772;32;34591;-76
2022/03/22 03:11:02;;;;;;;11.93;5.57;;;;;;;4.07;35.87;101821.56;4436624;32;211504;-76
2022/03/22 03:14:38;;;;;;;11.55;5.93;;;;;;;4.20;35.54;101827.81;4443798;32;34115;-76
2022/03/22 03:16:17;;;;;;;10.85;5.50;;;;;;;4.11;35.65;101825.78;4458604;32;33635;-76
2022/03/22 03:18:45;;;;;;;11.20;5.72;;;;;;;4.06;36.15;101832.53;4430791;32;32968;-76
2022/03/22 03:21:12;;;;;;;11.40;5.45;;;;;;;4.06;36.03;101821.69;4430916;32;33389;-76
2022/03/22 03:23:42;;;;;;;12.80;6.05;;;;;;;4.07;36.08;101832.44;4456411;32;34222;-76
2022/03/22 03:26:10;;;;;;;12.10;5.95;;;;;;;3.90;36.59;101839.12;4470355;32;33373;-76
2022/03/22 03:28:37;;;;;;;9.93;5.28;;;;;;;3.89;36.89;101841.97;4469655;32;34402;-76
2022/03/22 03:31:05;;;;;;;10.55;5.55;;;;;;;4.15;36.35;101843.59;4443502;32;33894;-76
2022/03/22 03:33:33;;;;;;;10.27;5.10;;;;;;;4.07;36.45;101839.72;4430848;32;31826;-76
2022/03/22 03:36:02;;;;;;;10.63;5.72;;;;;;;4.15;36.32;101838.16;4443271;32;33154;-76
2022/03/22 03:38:30;;;;;;;17.15;8.93;;;;;;;3.95;36.39;101836.94;4443796;32;34446;-76
2022/03/22 03:43:44;;;;;;;45.50;25.00;;;;;;;3.94;36.86;101829.75;4445519;32;31724;-76
2022/03/22 03:48:59;;;;;;;61.80;34.60;;;;;;;4.01;36.49;101832.03;4458321;32;35699;-76
2022/03/22 03:51:28;;;;;;;75.82;37.92;;;;;;;3.69;37.12;101829.00;4455981;32;32462;-76
2022/03/22 03:53:57;;;;;;;57.13;29.33;;;;;;;3.93;36.49;101828.03;4443780;32;33442;-76
2022/03/22 03:56:25;;;;;;;56.05;29.45;;;;;;;4.02;36.43;101831.91;4443310;32;32214;-76
2022/03/22 03:58:56;;;;;;;57.08;28.55;;;;;;;3.89;36.71;101836.53;4443335;32;34664;-76
2022/03/22 04:01:25;;;;;;;52.92;28.02;;;;;;;3.81;36.79;101828.09;4456274;32;33694;-76
2022/03/22 04:03:53;;;;;;;53.85;28.67;;;;;;;3.85;36.78;101829.59;4443730;32;33344;-76
2022/03/22 04:06:21;;;;;;;59.35;29.63;;;;;;;3.90;36.42;101832.84;4456211;32;34454;-76
2022/03/22 04:08:48;;;;;;;65.30;32.40;;;;;;;3.79;36.61;101838.19;4455977;32;35150;-76
2022/03/22 04:11:16;;;;;;;62.70;31.83;;;;;;;3.82;36.67;101844.28;4443175;32;34508;-76
2022/03/22 04:13:45;;;;;;;43.33;20.77;;;;;;;3.93;36.38;101832.59;4456081;32;34228;-76
2022/03/22 04:16:12;;;;;;;30.85;15.63;;;;;;;3.77;36.64;101843.75;4430335;32;33607;-76
2022/03/22 04:18:40;;;;;;;22.37;12.70;;;;;;;3.84;36.60;101850.47;4443142;32;32864;-76
2022/03/22 04:21:07;;;;;;;20.33;11.50;;;;;;;3.81;36.95;101849.81;4456037;32;34148;-76
2022/03/22 04:23:35;;;;;;;18.92;9.93;;;;;;;3.55;37.47;101849.00;4455938;32;33609;-76
2022/03/22 04:26:03;;;;;;;21.17;9.80;;;;;;;3.69;37.42;101850.72;4456008;32;33906;-76
2022/03/22 04:34:04;;;;;;;18.03;9.43;;;;;;;3.88;37.05;101861.97;4458309;32;33912;-76
2022/03/22 04:36:32;;;;;;;16.08;9.13;;;;;;;3.75;37.19;101862.00;4455897;32;33875;-76
2022/03/22 04:39:01;;;;;;;16.52;8.02;;;;;;;3.47;37.52;101864.97;4455967;32;35194;-76
2022/03/22 04:41:29;;;;;;;12.30;6.80;;;;;;;3.64;37.06;101870.94;4442733;32;35050;-76
2022/03/22 04:43:57;;;;;;;15.45;7.10;;;;;;;3.63;37.34;101874.63;4455907;32;34240;-76
2022/03/22 04:46:24;;;;;;;13.68;6.60;;;;;;;3.59;37.13;101864.09;4442819;32;32229;-76
2022/03/22 04:48:52;;;;;;;14.60;6.85;;;;;;;3.69;36.95;101867.87;4455625;32;34659;-76
2022/03/22 04:56:54;;;;;;;14.87;6.57;;;;;;;3.40;37.64;101882.66;4458053;32;33711;-76
2022/03/22 04:59:24;;;;;;;14.68;7.10;;;;;;;3.71;37.03;101871.34;4469293;32;34769;-76
2022/03/22 05:01:51;;;;;;;18.10;7.22;;;;;;;3.55;37.33;101866.16;4455581;32;33900;-76
2022/03/22 05:04:20;;;;;;;14.27;7.75;;;;;;;3.67;37.22;101875.25;4442876;32;33250;-76
2022/03/22 05:06:47;;;;;;;14.90;7.95;;;;;;;3.55;37.31;101874.31;4455283;32;33845;-74
2022/03/22 05:09:15;;;;;;;16.67;8.52;;;;;;;3.61;38.83;101878.41;4455727;32;35079;-74
2022/03/22 05:11:42;;;;;;;17.37;10.13;;;;;;;3.70;37.88;101877.75;4454109;32;34744;-74
2022/03/22 05:14:10;;;;;;;17.60;10.43;;;;;;;3.69;37.38;101864.28;4469057;32;34013;-74
2022/03/22 05:16:39;;;;;;;15.90;11.10;;;;;;;3.63;37.47;101874.63;4455369;32;33701;-74
2022/03/22 05:19:07;;;;;;;20.35;12.20;;;;;;;3.65;37.31;101871.78;4455359;32;34665;-75
2022/03/22 05:21:34;;;;;;;20.98;12.55;;;;;;;3.63;37.15;101879.19;4441945;32;32636;-74
2022/03/22 05:24:04;;;;;;;18.05;12.00;;;;;;;3.51;37.53;101880.94;4468266;32;34333;-75
2022/03/22 05:26:32;;;;;;;17.40;9.90;;;;;;;3.61;37.29;101873.84;4440511;32;33669;-75
2022/03/22 05:29:04;;;;;;;19.80;10.05;;;;;;;3.70;37.10;101880.47;4427311;32;33862;-76
2022/03/22 05:31:34;;;;;;;16.95;9.77;;;;;;;3.68;37.43;101881.56;4453197;32;34492;-75
2022/03/22 05:34:02;;;;;;;16.33;8.82;;;;;;;3.92;37.08;101875.19;4452907;32;34094;-76
2022/03/22 05:36:30;;;;;;;13.30;6.43;;;;;;;3.82;37.39;101876.00;4452909;32;34188;-75
2022/03/22 05:38:58;;;;;;;15.85;7.78;;;;;;;3.88;37.19;101883.69;4453593;32;34409;-75
2022/03/22 05:41:26;;;;;;;16.25;8.07;;;;;;;3.88;37.83;101884.56;4442240;32;34646;-75
2022/03/22 05:43:53;;;;;;;16.37;7.15;;;;;;;3.97;37.45;101874.84;4454907;32;34013;-75
2022/03/22 05:46:22;;;;;;;14.05;7.15;;;;;;;4.16;37.30;101885.22;4442175;32;34485;-75
2022/03/22 05:48:50;;;;;;;19.95;8.00;;;;;;;4.20;37.27;101884.03;4441855;32;34114;-76
2022/03/22 05:51:20;;;;;;;17.12;7.35;;;;;;;4.57;36.70;101877.53;4454891;32;34797;-75
2022/03/22 05:53:48;;;;;;;16.10;8.02;;;;;;;4.66;36.84;101870.53;4456680;32;33896;-75
2022/03/22 05:56:15;;;;;;;13.60;7.50;;;;;;;4.78;37.03;101880.47;4443797;32;34463;-76
2022/03/22 05:58:43;;;;;;;13.98;7.10;;;;;;;4.88;36.75;101884.22;4443927;32;33197;-75
2022/03/22 06:01:12;;;;;;;15.88;7.87;;;;;;;4.94;37.04;101891.91;4444128;32;33324;-76
2022/03/22 06:03:40;;;;;;;16.15;7.70;;;;;;;5.06;36.95;101897.38;4456811;32;33133;-75
2022/03/22 06:06:07;;;;;;;18.25;7.45;;;;;;;5.02;36.18;101891.31;4471488;32;33585;-75
2022/03/22 06:08:35;;;;;;;13.82;7.32;;;;;;;5.61;35.60;101892.00;4486412;32;34333;-75
2022/03/22 06:11:02;;;;;;;14.10;6.93;;;;;;;5.77;35.54;101886.19;4459404;32;34178;-75
2022/03/22 06:13:30;;;;;;;15.43;7.62;;;;;;;5.85;35.83;101900.03;4458291;32;31789;-75
2022/03/22 06:15:58;;;;;;;14.15;7.32;;;;;;;6.13;35.64;101898.69;4457827;32;32397;-75
2022/03/22 06:18:26;;;;;;;19.58;8.52;;;;;;;6.35;35.09;101897.78;4484560;32;34106;-75
2022/03/22 06:20:53;;;;;;;17.58;7.60;;;;;;;6.56;35.06;101895.09;4470420;32;34056;-75
2022/03/22 06:23:22;;;;;;;20.83;8.48;;;;;;;6.66;34.60;101885.13;4470593;32;33369;-75
2022/03/22 06:25:51;;;;;;;18.12;8.95;;;;;;;7.04;34.59;101891.94;4471272;32;33589;-75
2022/03/22 06:28:22;;;;;;;18.62;8.88;;;;;;;7.36;34.70;101897.28;4471428;32;34336;-75
2022/03/22 06:30:51;;;;;;;18.40;9.48;;;;;;;7.56;33.93;101897.28;4472326;32;34117;-75
2022/03/22 06:33:19;;;;;;;15.40;8.25;;;;;;;7.74;33.86;101900.25;4472270;32;34307;-75
2022/03/22 06:35:49;;;;;;;37.28;18.42;;;;;;;8.12;33.92;101894.06;4446495;32;33133;-75
2022/03/22 06:38:19;;;;;;;23.10;11.40;;;;;;;8.38;32.79;101890.84;4459500;32;34529;-75
2022/03/22 06:40:52;;;;;;;19.87;10.30;;;;;;;8.72;33.42;101894.91;4472475;32;34163;-75
2022/03/22 06:43:24;;;;;;;19.65;10.55;;;;;;;8.98;32.31;101897.94;4473198;32;33343;-75
2022/03/22 06:45:52;;;;;;;16.77;10.20;;;;;;;9.09;31.29;101892.31;4472097;32;33703;-76
2022/03/22 06:48:22;;;;;;;20.48;10.07;;;;;;;9.29;30.70;101892.28;4459314;32;34274;-75
2022/03/22 06:50:51;;;;;;;23.42;10.63;;;;;;;9.64;31.78;101897.97;4446377;32;32282;-75
2022/03/22 06:53:21;;;;;;;17.27;9.50;;;;;;;9.80;32.47;101883.59;4446893;32;32864;-75
2022/03/22 06:55:54;;;;;;;18.25;10.05;;;;;;;10.16;32.15;101890.09;4471679;32;34485;-76
2022/03/22 06:58:27;;;;;;;21.17;9.27;;;;;;;10.36;29.00;101888.13;4471494;32;34554;-76
2022/03/22 07:00:55;;;;;;;17.20;9.15;;;;;;;10.65;30.56;101894.25;4458511;32;34581;-76
2022/03/22 07:03:29;;;;;;;15.35;9.50;;;;;;;11.16;30.09;101889.91;4457850;32;34185;-76
2022/03/22 07:06:03;;;;;;;16.83;9.90;;;;;;;11.53;30.59;101893.31;4472147;32;33728;-76
2022/03/22 07:08:31;;;;;;;23.52;10.70;;;;;;;11.98;30.13;101892.22;4458631;32;33259;-76
2022/03/22 07:13:53;;;;;;;21.70;10.57;;;;;;;12.62;25.73;101882.44;4458341;32;32596;-76
2022/03/22 07:16:21;;;;;;;17.75;10.93;;;;;;;13.04;26.32;101875.94;4456308;32;32776;-76
2022/03/22 07:18:49;;;;;;;17.12;10.90;;;;;;;13.27;24.75;101874.25;4469076;32;34452;-76
2022/03/22 07:21:19;;;;;;;21.35;11.70;;;;;;;13.72;24.16;101881.06;4469078;32;34903;-76
2022/03/22 07:23:50;;;;;;;25.25;12.15;;;;;;;14.04;25.47;101877.37;4456264;32;34078;-76
2022/03/22 07:26:17;;;;;;;29.92;16.77;;;;;;;14.22;25.45;101882.66;4456400;32;33712;-76
2022/03/22 07:28:48;;;;;;;26.33;13.73;;;;;;;14.58;25.72;101881.09;4469160;32;35237;-76
2022/03/22 07:31:16;;;;;;;27.05;14.90;;;;;;;14.80;25.63;101885.78;4456315;32;32233;-76
2022/03/22 07:33:48;;;;;;;23.77;13.93;;;;;;;15.05;24.63;101871.75;4443709;32;31925;-75
2022/03/22 07:36:21;;;;;;;23.65;12.95;;;;;;;15.07;24.81;101883.50;4451953;32;34768;-75
2022/03/22 07:39:22;;;;;;;21.45;11.50;;;;;;;15.32;21.86;101882.25;4453499;32;34102;-75
2022/03/22 07:41:55;;;;;;;22.30;12.80;;;;;;;15.54;24.04;101882.41;4428066;32;32535;-76
2022/03/22 07:44:22;;;;;;;19.62;11.85;;;;;;;15.69;24.32;101886.06;4452656;32;33419;-75
2022/03/22 07:46:55;;;;;;;21.33;12.45;;;;;;;15.75;22.51;101888.94;4453561;32;34631;-76
2022/03/22 07:55:03;;;;;;;20.50;11.32;;;;;;;15.81;21.02;101885.41;4453309;32;33525;-76
2022/03/22 07:57:30;;;;;;;20.85;12.05;;;;;;;15.93;19.21;101888.56;4452914;32;32242;-77
2022/03/22 07:59:58;;;;;;;24.08;13.13;;;;;;;15.90;20.52;101888.09;4440265;32;32688;-76
2022/03/22 08:02:26;;;;;;;21.60;13.15;;;;;;;15.64;19.10;101891.31;4440377;32;33519;-77
2022/03/22 08:04:56;;;;;;;24.10;14.57;;;;;;;15.70;18.58;101887.78;4453337;32;34588;-77
2022/03/22 08:07:28;;;;;;;24.35;13.98;;;;;;;15.71;18.73;101889.50;4440695;32;33672;-77
2022/03/22 08:09:59;;;;;;;24.33;12.60;;;;;;;15.70;18.13;101887.78;4454690;32;34385;-77
2022/03/22 08:12:46;;;;;;;23.75;13.77;;;;;;;16.09;18.09;101885.62;4440867;32;33474;-76
2022/03/22 08:15:16;;;;;;;18.70;12.70;;;;;;;15.76;17.95;101878.72;4440005;32;34161;-77
2022/03/22 08:17:44;;;;;;;20.15;13.10;;;;;;;16.03;18.10;101880.84;4452780;32;32320;-76
2022/03/22 08:20:13;;;;;;;21.67;13.52;;;;;;;16.47;19.10;101879.91;4440143;32;34169;-76
2022/03/22 08:22:52;;;;;;;23.85;13.15;;;;;;;16.16;17.64;101871.84;4453100;32;34051;-75
2022/03/22 08:25:29;;;;;;;22.37;14.38;;;;;;;16.30;17.95;101873.72;4452984;32;31765;-76
2022/03/22 08:28:00;;;;;;;22.13;13.77;;;;;;;16.26;19.71;101869.62;4453129;32;32504;-76
2022/03/22 08:30:28;;;;;;;21.75;13.23;;;;;;;16.27;17.61;101863.03;4453083;32;34647;-76
2022/03/22 08:33:03;;;;;;;21.33;12.93;;;;;;;16.26;17.75;101866.84;4452946;32;32576;-76
2022/03/22 08:35:41;;;;;;;23.45;13.32;;;;;;;16.75;18.58;101867.06;4441600;32;34294;-76
2022/03/22 08:38:10;;;;;;;23.45;12.35;;;;;;;17.22;18.20;101860.03;4427604;32;32535;-76
2022/03/22 08:40:40;;;;;;;21.00;13.55;;;;;;;17.50;17.95;101862.00;4440286;32;34391;-75
2022/03/22 08:43:08;;;;;;;23.33;14.75;;;;;;;17.69;16.68;101861.28;4452969;32;34676;-76
2022/03/22 08:45:36;;;;;;;22.30;13.32;;;;;;;17.94;16.79;101851.44;4427478;32;33644;-76
2022/03/22 08:48:09;;;;;;;20.55;12.90;;;;;;;17.86;17.48;101853.50;4440037;32;32743;-76
2022/03/22 08:50:39;;;;;;;25.00;14.65;;;;;;;18.17;15.65;101856.69;4440609;32;34326;-76
2022/03/22 08:53:09;;;;;;;25.37;14.93;;;;;;;18.06;15.64;101843.37;4451064;32;33858;-76
2022/03/22 08:55:45;;;;;;;21.23;13.13;;;;;;;18.44;16.84;101840.94;4451603;32;34221;-76
2022/03/22 08:58:13;;;;;;;23.87;13.57;;;;;;;18.41;15.27;101841.38;4454155;32;32926;-76
2022/03/22 09:00:41;;;;;;;20.90;12.80;;;;;;;18.34;15.40;101837.69;4455002;32;34652;-76
2022/03/22 09:03:10;;;;;;;22.02;13.57;;;;;;;18.99;15.79;101839.81;4455631;32;33980;-76
2022/03/22 09:08:25;;;;;;;31.83;19.05;;;;;;;19.03;14.99;101841.13;4468192;32;32335;-83
2022/03/22 09:10:53;;;;;;;19.75;12.48;;;;;;;19.20;14.63;101835.12;4454396;32;34900;-77
2022/03/22 09:13:21;;;;;;;21.95;12.95;;;;;;;18.98;14.55;101834.47;4440934;32;32336;-78
2022/03/22 09:15:51;;;;;;;23.52;14.73;;;;;;;18.85;14.43;101832.53;4441535;32;32661;-78
2022/03/22 09:18:24;;;;;;;23.73;13.38;;;;;;;19.73;15.79;101824.84;4442175;32;33584;-78
2022/03/22 09:20:55;;;;;;;18.25;13.07;;;;;;;19.96;16.40;101822.41;4441828;32;33120;-78
2022/03/22 09:23:25;;;;;;;27.62;16.12;;;;;;;19.63;14.91;101830.84;4444711;32;33800;-78
2022/03/22 09:25:54;;;;;;;20.73;13.27;;;;;;;20.16;15.12;101827.03;4452386;32;32858;-78
2022/03/22 09:28:24;;;;;;;18.95;12.80;;;;;;;20.35;13.85;101813.03;4443894;32;32244;-78
2022/03/22 09:30:52;;;;;;;20.33;13.18;;;;;;;20.69;13.84;101820.19;4451872;32;34102;-78
2022/03/22 09:33:25;;;;;;;23.08;13.35;;;;;;;20.58;14.21;101808.88;4462860;32;32540;-78
2022/03/22 09:35:57;;;;;;;20.70;12.30;;;;;;;20.61;13.81;101809.28;4446689;32;34290;-78
2022/03/22 09:38:24;;;;;;;20.15;12.68;;;;;;;20.68;13.88;101803.66;4445708;32;32385;-78
2022/03/22 09:40:52;;;;;;;22.50;14.90;;;;;;;21.00;13.55;101804.50;4443803;32;32876;-78
2022/03/22 09:43:23;;;;;;;21.70;13.00;;;;;;;20.67;14.17;101807.53;4450061;32;34467;-78
2022/03/22 09:45:51;;;;;;;21.20;12.93;;;;;;;20.70;14.33;101799.56;4454067;32;33529;-78
2022/03/22 09:48:19;;;;;;;21.25;12.73;;;;;;;20.90;13.83;101804.13;4450881;32;34395;-79
2022/03/22 09:53:33;;;;;;;17.85;11.85;;;;;;;21.13;15.04;101800.75;4442548;32;33778;-79
2022/03/22 09:56:07;;;;;;;21.95;12.10;;;;;;;20.19;13.56;101801.50;4429951;32;31665;-79
2022/03/22 09:58:36;;;;;;;28.33;17.73;;;;;;;20.60;14.21;101796.41;4442480;32;34454;-76
2022/03/22 10:01:05;;;;;;;22.35;13.43;;;;;;;21.45;13.60;101790.41;4428157;32;32867;-79
2022/03/22 10:03:33;;;;;;;20.42;12.07;;;;;;;20.56;13.23;101786.78;4443666;32;33860;-78
2022/03/22 10:06:02;;;;;;;19.67;11.15;;;;;;;20.12;13.22;101784.84;4444987;32;32931;-79
2022/03/22 10:08:30;;;;;;;23.73;13.07;;;;;;;21.04;13.04;101783.41;4446888;32;33078;-79
2022/03/22 10:11:04;;;;;;;18.77;12.00;;;;;;;21.51;12.81;101778.28;4443759;32;34354;-79
2022/03/22 10:13:35;;;;;;;19.42;11.68;;;;;;;20.97;14.20;101779.81;4465457;32;32303;-78
2022/03/22 10:16:05;;;;;;;21.55;10.75;;;;;;;21.22;13.48;101777.94;4463773;32;32052;-79
2022/03/22 10:18:37;;;;;;;15.82;10.57;;;;;;;21.29;12.91;101775.94;4463771;32;32044;-76
2022/03/22 10:21:07;;;;;;;19.95;12.13;;;;;;;21.46;12.72;101786.50;4473313;32;33498;-76
2022/03/22 10:23:51;;;;;;;20.05;11.65;;;;;;;21.67;12.64;101772.94;4465235;32;33947;-79
2022/03/22 10:26:19;;;;;;;17.12;10.80;;;;;;;21.79;12.83;101773.03;4466153;32;33504;-80
2022/03/22 10:28:53;;;;;;;16.95;10.85;;;;;;;21.99;12.99;101765.25;4471565;32;33583;-79
2022/03/22 10:31:34;;;;;;;16.45;10.90;;;;;;;22.40;12.73;101760.88;4470853;32;32917;-79
2022/03/22 10:34:02;;;;;;;19.67;10.43;;;;;;;21.42;12.19;101762.94;4471092;32;33786;-79
2022/03/22 10:36:36;;;;;;;17.55;11.27;;;;;;;21.63;13.08;101756.88;4456565;32;32090;-79
2022/03/22 10:39:10;;;;;;;16.42;10.88;;;;;;;22.21;13.34;101751.66;4476976;32;34472;-79
2022/03/22 10:41:39;;;;;;;16.83;10.50;;;;;;;22.29;12.34;101756.06;4453824;32;32872;-79
2022/03/22 10:44:15;;;;;;;16.17;10.75;;;;;;;22.63;12.26;101755.37;4477734;32;33643;-79
2022/03/22 10:46:46;;;;;;;17.33;11.23;;;;;;;22.54;12.58;101740.00;4469147;32;31885;-79
2022/03/22 10:49:19;;;;;;;17.20;11.50;;;;;;;22.51;12.03;101751.66;4479616;32;34000;-79
2022/03/22 10:52:08;;;;;;;16.05;10.75;;;;;;;22.40;12.69;101748.81;4460314;32;34079;-79
2022/03/22 10:54:36;;;;;;;17.33;11.32;;;;;;;22.66;14.09;101738.09;4475228;32;33147;-79
2022/03/22 10:57:05;;;;;;;24.95;16.23;;;;;;;22.76;14.03;101736.62;4458035;32;34115;-79
2022/03/22 10:59:34;;;;;;;22.67;15.10;;;;;;;23.06;13.34;101731.00;4470163;32;34535;-79
2022/03/22 11:02:03;;;;;;;15.35;10.68;;;;;;;22.98;14.37;101732.19;4467177;32;33015;-79
2022/03/22 11:04:31;;;;;;;17.17;10.82;;;;;;;22.86;12.50;101722.94;4477965;32;34640;-79
2022/03/22 11:07:02;;;;;;;18.77;10.63;;;;;;;23.24;12.11;101712.13;4460235;32;32383;-79
2022/03/22 11:09:31;;;;;;;16.23;10.23;;;;;;;22.90;12.36;101718.56;4461618;32;33812;-79
2022/03/22 11:12:01;;;;;;;15.07;10.20;;;;;;;22.67;12.13;101713.75;4463331;32;34969;-77
2022/03/22 11:14:32;;;;;;;18.87;12.15;;;;;;;23.05;12.13;101707.75;4467354;32;34083;-77
2022/03/22 11:17:00;;;;;;;17.20;9.70;;;;;;;23.25;13.30;101710.19;4469878;32;33553;-79
2022/03/22 11:19:30;;;;;;;16.40;10.50;;;;;;;22.92;11.52;101697.63;4471998;32;32378;-79
2022/03/22 11:22:09;;;;;;;14.43;10.27;;;;;;;23.00;12.54;101707.59;4472048;32;32503;-79
2022/03/22 11:24:37;;;;;;;15.10;8.95;;;;;;;23.03;11.54;101695.06;4484829;32;34772;-79
2022/03/22 11:27:11;;;;;;;14.48;9.57;;;;;;;22.99;12.38;101689.94;4484987;32;33344;-78
2022/03/22 11:29:41;;;;;;;18.83;10.50;;;;;;;22.86;12.59;101692.13;4471631;32;32185;-78
2022/03/22 11:35:01;;;;;;;15.52;10.50;;;;;;;23.27;14.30;101680.81;4473476;32;32516;-78
2022/03/22 11:37:34;;;;;;;18.33;10.00;;;;;;;23.02;11.92;101677.41;4471718;32;33430;-78
2022/03/22 11:42:57;;;;;;;16.25;8.73;;;;;;;23.13;11.64;101670.97;4473656;32;34035;-78
2022/03/22 11:45:25;;;;;;;13.23;8.82;;;;;;;23.11;12.58;101673.16;4471349;32;34108;-79
2022/03/22 11:47:54;;;;;;;14.60;8.88;;;;;;;22.90;11.85;101663.41;4471719;32;31716;-79
2022/03/22 11:50:22;;;;;;;15.85;10.05;;;;;;;23.16;11.13;101659.28;4470728;32;33596;-79
2022/03/22 11:52:55;;;;;;;14.50;8.40;;;;;;;22.67;12.17;101664.22;4471531;32;32945;-76
2022/03/22 11:55:24;;;;;;;15.05;9.10;;;;;;;22.81;11.36;101650.00;4471497;32;34139;-75
2022/03/22 11:58:12;;;;;;;13.60;8.07;;;;;;;22.42;11.66;101659.91;4484290;32;33279;-75
2022/03/22 12:00:51;;;;;;;13.77;8.02;;;;;;;22.56;11.22;101656.66;4484612;32;32236;-76
2022/03/22 12:03:23;;;;;;;11.93;8.07;;;;;;;22.78;12.06;101650.44;4472720;32;34770;-75
2022/03/22 12:05:54;;;;;;;45.17;28.27;;;;;;;22.64;11.04;101639.50;4472057;32;33585;-75
2022/03/22 12:08:23;;;;;;;20.20;16.05;;;;;;;22.98;12.21;101643.44;4470143;32;32942;-77
2022/03/22 12:10:55;;;;;;;31.37;17.85;;;;;;;22.71;12.11;101631.00;4483271;32;34488;-78
2022/03/22 12:13:25;;;;;;;13.55;8.05;;;;;;;22.68;11.88;101635.12;4471511;32;33177;-77